Time,TemperatureF,DewpointF,PressureIn,WindDirection,WindDirectionDegrees,WindSpeedMPH,WindSpeedGustMPH,Humidity,HourlyPrecipIn,Conditions,Clouds,dailyrainin,SoftwareType,DateUTC
2013-06-06 00:01:00,45.0,31.0,29.57,NW,308,0.0,0.0,58,0.00,,,0.00,,2013-06-06 06:01:00,
2013-06-06 00:22:00,44.0,31.0,29.56,NW,308,0.0,0.0,60,0.00,,,0.00,,2013-06-06 06:22:00,
2013-06-06 00:32:00,44.0,31.0,29.56,NW,308,0.0,0.0,61,0.00,,,0.00,,2013-06-06 06:32:00,
2013-06-06 00:42:00,44.0,31.0,29.56,NW,308,0.0,0.0,61,0.00,,,0.00,,2013-06-06 06:42:00,
2013-06-06 00:52:00,43.0,31.0,29.56,NW,308,0.0,0.0,63,0.00,,,0.00,,2013-06-06 06:52:00,
2013-06-06 01:02:00,42.0,31.0,29.57,NW,308,0.0,0.0,64,0.00,,,0.00,,2013-06-06 07:02:00,
2013-06-06 01:22:00,42.0,31.0,29.56,NW,308,0.0,0.0,64,0.00,,,0.00,,2013-06-06 07:22:00,
2013-06-06 01:31:00,41.0,30.0,29.56,NW,308,0.0,0.0,65,0.00,,,0.00,,2013-06-06 07:31:00,
2013-06-06 01:42:00,41.0,30.0,29.56,NW,308,0.0,0.0,65,0.00,,,0.00,,2013-06-06 07:42:00,
2013-06-06 01:52:00,41.0,31.0,29.57,NW,308,0.0,0.0,67,0.00,,,0.00,,2013-06-06 07:52:00,
2013-06-06 02:02:00,41.0,31.0,29.57,NW,308,0.0,0.0,67,0.00,,,0.00,,2013-06-06 08:02:00,
2013-06-06 02:11:00,41.0,31.0,29.57,NW,308,0.0,0.0,67,0.00,,,0.00,,2013-06-06 08:11:00,
2013-06-06 02:22:00,41.0,31.0,29.57,NW,308,0.0,0.0,68,0.00,,,0.00,,2013-06-06 08:22:00,
2013-06-06 02:31:00,41.0,32.0,29.57,NW,308,0.0,0.0,69,0.00,,,0.00,,2013-06-06 08:31:00,
2013-06-06 02:42:00,40.0,31.0,29.57,NW,308,0.0,0.0,70,0.00,,,0.00,,2013-06-06 08:42:00,
2013-06-06 02:52:00,40.0,31.0,29.57,NW,308,0.0,0.0,70,0.00,,,0.00,,2013-06-06 08:52:00,
2013-06-06 03:01:00,40.0,31.0,29.57,NW,308,0.0,0.0,71,0.00,,,0.00,,2013-06-06 09:01:00,
2013-06-06 03:12:00,40.0,31.0,29.57,NW,308,0.0,0.0,71,0.00,,,0.00,,2013-06-06 09:12:00,
2013-06-06 03:22:00,39.0,31.0,29.56,NW,308,0.0,0.0,72,0.00,,,0.00,,2013-06-06 09:22:00,
2013-06-06 03:32:00,39.0,31.0,29.58,NW,308,0.0,0.0,73,0.00,,,0.00,,2013-06-06 09:32:00,
2013-06-06 03:42:00,39.0,31.0,29.58,NW,308,0.0,0.0,73,0.00,,,0.00,,2013-06-06 09:42:00,
2013-06-06 03:53:00,39.0,31.0,29.58,NW,308,0.0,0.0,74,0.00,,,0.00,,2013-06-06 09:53:00,
2013-06-06 04:02:00,39.0,32.0,29.58,NW,308,0.0,0.0,75,0.00,,,0.00,,2013-06-06 10:02:00,
2013-06-06 04:12:00,38.0,31.0,29.58,NW,308,0.0,0.0,75,0.00,,,0.00,,2013-06-06 10:12:00,
2013-06-06 04:22:00,38.0,31.0,29.58,NW,308,0.0,0.0,75,0.00,,,0.00,,2013-06-06 10:22:00,
2013-06-06 04:32:00,38.0,31.0,29.58,NW,308,0.0,0.0,76,0.00,,,0.00,,2013-06-06 10:32:00,
2013-06-06 04:41:00,38.0,31.0,29.58,NW,308,0.0,0.0,76,0.00,,,0.00,,2013-06-06 10:41:00,
2013-06-06 04:52:00,38.0,31.0,29.58,NW,308,0.0,0.0,76,0.00,,,0.00,,2013-06-06 10:52:00,
2013-06-06 05:02:00,38.0,31.0,29.58,NW,308,0.0,0.0,77,0.00,,,0.00,,2013-06-06 11:02:00,
2013-06-06 05:11:00,38.0,31.0,29.58,NW,308,0.0,0.0,77,0.00,,,0.00,,2013-06-06 11:11:00,
2013-06-06 05:22:00,37.0,31.0,29.58,NW,308,0.0,0.0,78,0.00,,,0.00,,2013-06-06 11:22:00,
2013-06-06 05:32:00,37.0,31.0,29.58,NW,308,0.0,0.0,78,0.00,,,0.00,,2013-06-06 11:32:00,
2013-06-06 05:42:00,37.0,31.0,29.58,NW,308,0.0,0.0,78,0.00,,,0.00,,2013-06-06 11:42:00,
2013-06-06 05:52:00,37.0,31.0,29.58,NW,308,0.0,0.0,79,0.00,,,0.00,,2013-06-06 11:52:00,
2013-06-06 06:02:00,36.0,30.0,29.60,NW,308,0.0,0.0,79,0.00,,,0.00,,2013-06-06 12:02:00,
2013-06-06 06:12:00,36.0,30.0,29.60,NW,308,0.0,0.0,79,0.00,,,0.00,,2013-06-06 12:12:00,
2013-06-06 06:22:00,36.0,30.0,29.60,NW,308,0.0,0.0,80,0.00,,,0.00,,2013-06-06 12:22:00,
2013-06-06 06:32:00,37.0,31.0,29.60,NW,308,0.0,0.0,80,0.00,,,0.00,,2013-06-06 12:32:00,
2013-06-06 06:42:00,36.0,30.0,29.60,NW,308,0.0,0.0,80,0.00,,,0.00,,2013-06-06 12:42:00,
2013-06-06 06:52:00,36.0,30.0,29.60,NW,308,0.0,0.0,80,0.00,,,0.00,,2013-06-06 12:52:00,
2013-06-06 07:02:00,36.0,30.0,29.60,NW,308,0.0,0.0,80,0.00,,,0.00,,2013-06-06 13:02:00,
2013-06-06 07:12:00,39.0,33.0,29.60,NW,308,0.0,0.0,78,0.00,,,0.00,,2013-06-06 13:12:00,
2013-06-06 07:22:00,39.0,33.0,29.60,NW,308,0.0,0.0,78,0.00,,,0.00,,2013-06-06 13:22:00,
2013-06-06 07:32:00,42.0,34.0,29.59,NW,308,0.0,0.0,72,0.00,,,0.00,,2013-06-06 13:32:00,
2013-06-06 07:42:00,42.0,34.0,29.59,NW,308,0.0,0.0,72,0.00,,,0.00,,2013-06-06 13:42:00,
2013-06-06 07:52:00,42.0,33.0,29.59,NW,308,1.0,2.0,70,0.00,,,0.00,,2013-06-06 13:52:00,
2013-06-06 08:02:00,45.0,35.0,29.58,NW,308,0.0,0.0,67,0.00,,,0.00,,2013-06-06 14:02:00,
2013-06-06 08:12:00,45.0,35.0,29.58,NW,308,0.0,0.0,67,0.00,,,0.00,,2013-06-06 14:12:00,
2013-06-06 08:22:00,47.0,34.0,29.62,NW,319,1.0,3.0,61,0.00,,,0.00,,2013-06-06 14:22:00,
2013-06-06 08:32:00,49.0,36.0,29.60,NW,320,0.0,2.0,60,0.00,,,0.00,,2013-06-06 14:32:00,
2013-06-06 08:42:00,49.0,36.0,29.60,NW,320,0.0,2.0,60,0.00,,,0.00,,2013-06-06 14:42:00,
2013-06-06 08:52:00,52.0,35.0,29.59,NW,320,0.0,2.0,53,0.00,,,0.00,,2013-06-06 14:52:00,
2013-06-06 09:02:00,54.0,35.0,29.58,North,352,1.0,2.0,48,0.00,,,0.00,,2013-06-06 15:02:00,
2013-06-06 09:12:00,54.0,35.0,29.58,North,352,1.0,2.0,48,0.00,,,0.00,,2013-06-06 15:12:00,
2013-06-06 09:22:00,57.0,35.0,29.57,North,352,1.0,3.0,44,0.00,,,0.00,,2013-06-06 15:22:00,
2013-06-06 09:32:00,58.0,36.0,29.59,North,359,1.0,2.0,44,0.00,,,0.00,,2013-06-06 15:32:00,
2013-06-06 09:42:00,58.0,36.0,29.59,North,359,1.0,2.0,44,0.00,,,0.00,,2013-06-06 15:42:00,
2013-06-06 09:53:00,61.0,35.0,29.56,North,359,1.0,1.0,38,0.00,,,0.00,,2013-06-06 15:53:00,
2013-06-06 10:02:00,65.0,37.0,29.54,North,359,1.0,3.0,35,0.00,,,0.00,,2013-06-06 16:02:00,
2013-06-06 10:12:00,65.0,37.0,29.54,North,359,1.0,3.0,35,0.00,,,0.00,,2013-06-06 16:12:00,
2013-06-06 10:22:00,66.0,36.0,29.55,North,0,1.0,3.0,33,0.00,,,0.00,,2013-06-06 16:22:00,
2013-06-06 10:33:00,67.0,37.0,29.54,North,6,2.0,3.0,33,0.00,,,0.00,,2013-06-06 16:33:00,
2013-06-06 10:42:00,67.0,37.0,29.54,North,6,2.0,3.0,33,0.00,,,0.00,,2013-06-06 16:42:00,
2013-06-06 10:53:00,70.0,35.0,29.52,North,6,1.0,3.0,28,0.00,,,0.00,,2013-06-06 16:53:00,
2013-06-06 11:02:00,71.0,35.0,29.52,North,6,0.0,3.0,27,0.00,,,0.00,,2013-06-06 17:02:00,
2013-06-06 11:12:00,72.0,32.0,29.53,NNW,335,1.0,3.0,23,0.00,,,0.00,,2013-06-06 17:12:00,
2013-06-06 11:22:00,72.0,32.0,29.53,NNW,335,1.0,3.0,23,0.00,,,0.00,,2013-06-06 17:22:00,
2013-06-06 11:32:00,71.0,31.0,29.54,NW,321,3.0,8.0,23,0.00,,,0.00,,2013-06-06 17:32:00,
2013-06-06 11:42:00,71.0,31.0,29.54,NW,321,3.0,8.0,23,0.00,,,0.00,,2013-06-06 17:42:00,
2013-06-06 11:53:00,72.0,33.0,29.53,WSW,250,1.0,3.0,24,0.00,,,0.00,,2013-06-06 17:53:00,
2013-06-06 12:02:00,72.0,31.0,29.53,West,266,2.0,6.0,22,0.00,,,0.00,,2013-06-06 18:02:00,
2013-06-06 12:12:00,72.0,31.0,29.53,West,266,2.0,6.0,22,0.00,,,0.00,,2013-06-06 18:12:00,
2013-06-06 12:22:00,72.0,32.0,29.54,WNW,284,2.0,7.0,23,0.00,,,0.00,,2013-06-06 18:22:00,
2013-06-06 12:33:00,73.0,32.0,29.53,WSW,241,3.0,8.0,22,0.00,,,0.00,,2013-06-06 18:33:00,
2013-06-06 12:42:00,73.0,32.0,29.53,WSW,241,3.0,8.0,22,0.00,,,0.00,,2013-06-06 18:42:00,
2013-06-06 12:53:00,73.0,32.0,29.53,North,10,2.0,5.0,22,0.00,,,0.00,,2013-06-06 18:53:00,
2013-06-06 13:02:00,73.0,33.0,29.53,SW,217,1.0,8.0,23,0.00,,,0.00,,2013-06-06 19:02:00,
2013-06-06 13:12:00,74.0,30.0,29.53,WSW,238,3.0,8.0,20,0.00,,,0.00,,2013-06-06 19:12:00,
2013-06-06 13:23:00,74.0,30.0,29.53,WSW,238,3.0,8.0,20,0.00,,,0.00,,2013-06-06 19:23:00,
2013-06-06 13:32:00,74.0,33.0,29.53,West,280,4.0,14.0,22,0.00,,,0.00,,2013-06-06 19:32:00,
2013-06-06 13:42:00,74.0,33.0,29.53,West,280,4.0,14.0,22,0.00,,,0.00,,2013-06-06 19:42:00,
2013-06-06 13:53:00,75.0,34.0,29.52,West,275,5.0,12.0,22,0.00,,,0.00,,2013-06-06 19:53:00,
2013-06-06 14:02:00,74.0,29.0,29.53,West,278,6.0,12.0,19,0.00,,,0.00,,2013-06-06 20:02:00,
2013-06-06 14:12:00,74.0,29.0,29.53,West,278,6.0,12.0,19,0.00,,,0.00,,2013-06-06 20:12:00,
2013-06-06 14:22:00,74.0,29.0,29.53,West,269,7.0,13.0,19,0.00,,,0.00,,2013-06-06 20:22:00,
2013-06-06 14:32:00,74.0,32.0,29.53,West,278,6.0,12.0,21,0.00,,,0.00,,2013-06-06 20:32:00,
2013-06-06 14:42:00,74.0,32.0,29.53,West,278,6.0,12.0,21,0.00,,,0.00,,2013-06-06 20:42:00,
2013-06-06 14:53:00,74.0,30.0,29.53,WSW,253,5.0,12.0,20,0.00,,,0.00,,2013-06-06 20:53:00,
2013-06-06 15:02:00,74.0,28.0,29.52,WSW,243,6.0,12.0,18,0.00,,,0.00,,2013-06-06 21:02:00,
2013-06-06 15:11:00,74.0,28.0,29.52,WSW,243,6.0,12.0,18,0.00,,,0.00,,2013-06-06 21:11:00,
2013-06-06 15:22:00,75.0,30.0,29.53,WNW,282,5.0,13.0,19,0.00,,,0.00,,2013-06-06 21:22:00,
2013-06-06 15:32:00,74.0,28.0,29.53,SW,226,4.0,13.0,18,0.00,,,0.00,,2013-06-06 21:32:00,
2013-06-06 15:43:00,74.0,28.0,29.53,SW,226,4.0,13.0,18,0.00,,,0.00,,2013-06-06 21:43:00,
2013-06-06 15:53:00,75.0,30.0,29.53,WNW,285,6.0,14.0,19,0.00,,,0.00,,2013-06-06 21:53:00,
2013-06-06 16:02:00,75.0,27.0,29.53,WSW,258,6.0,12.0,17,0.00,,,0.00,,2013-06-06 22:02:00,
2013-06-06 16:12:00,75.0,27.0,29.53,WSW,258,6.0,12.0,17,0.00,,,0.00,,2013-06-06 22:12:00,
2013-06-06 16:22:00,75.0,27.0,29.53,West,281,5.0,10.0,17,0.00,,,0.00,,2013-06-06 22:22:00,
2013-06-06 16:33:00,75.0,27.0,29.53,West,276,8.0,14.0,17,0.00,,,0.00,,2013-06-06 22:33:00,
2013-06-06 16:43:00,75.0,27.0,29.53,West,276,8.0,14.0,17,0.00,,,0.00,,2013-06-06 22:43:00,
2013-06-06 16:53:00,74.0,29.0,29.54,WNW,290,5.0,12.0,19,0.00,,,0.00,,2013-06-06 22:53:00,
2013-06-06 17:02:00,75.0,31.0,29.52,WNW,295,4.0,7.0,20,0.00,,,0.00,,2013-06-06 23:02:00,
2013-06-06 17:12:00,75.0,31.0,29.52,WNW,295,4.0,7.0,20,0.00,,,0.00,,2013-06-06 23:12:00,
2013-06-06 17:22:00,75.0,29.0,29.53,WNW,282,6.0,13.0,18,0.00,,,0.00,,2013-06-06 23:22:00,
2013-06-06 17:33:00,75.0,32.0,29.53,WSW,243,1.0,9.0,21,0.00,,,0.00,,2013-06-06 23:33:00,
2013-06-06 17:42:00,75.0,32.0,29.53,WSW,243,1.0,9.0,21,0.00,,,0.00,,2013-06-06 23:42:00,
2013-06-06 17:52:00,76.0,32.0,29.52,WNW,303,1.0,13.0,20,0.00,,,0.00,,2013-06-06 23:52:00,
2013-06-06 18:01:00,73.0,30.0,29.54,WSW,253,4.0,12.0,20,0.00,,,0.00,,2013-06-07 00:01:00,
2013-06-06 18:12:00,73.0,30.0,29.54,WSW,253,4.0,12.0,20,0.00,,,0.00,,2013-06-07 00:12:00,
2013-06-06 18:21:00,73.0,28.0,29.52,WSW,249,5.0,12.0,19,0.00,,,0.00,,2013-06-07 00:21:00,
2013-06-06 18:32:00,73.0,27.0,29.52,WSW,245,9.0,14.0,18,0.00,,,0.00,,2013-06-07 00:32:00,
2013-06-06 18:42:00,73.0,27.0,29.52,WSW,245,9.0,14.0,18,0.00,,,0.00,,2013-06-07 00:42:00,
2013-06-06 18:52:00,73.0,31.0,29.51,WNW,284,3.0,8.0,21,0.00,,,0.00,,2013-06-07 00:52:00,
2013-06-06 19:02:00,73.0,28.0,29.51,West,260,5.0,12.0,19,0.00,,,0.00,,2013-06-07 01:02:00,
2013-06-06 19:11:00,73.0,28.0,29.51,West,260,5.0,12.0,19,0.00,,,0.00,,2013-06-07 01:11:00,
2013-06-06 19:22:00,71.0,27.0,29.48,WSW,245,7.0,13.0,19,0.00,,,0.00,,2013-06-07 01:22:00,
2013-06-06 19:32:00,70.0,28.0,29.49,WSW,245,2.0,7.0,21,0.00,,,0.00,,2013-06-07 01:32:00,
2013-06-06 19:42:00,70.0,28.0,29.49,WSW,245,2.0,7.0,21,0.00,,,0.00,,2013-06-07 01:42:00,
2013-06-06 19:52:00,70.0,28.0,29.49,WSW,252,3.0,8.0,21,0.00,,,0.00,,2013-06-07 01:52:00,
2013-06-06 20:02:00,69.0,30.0,29.49,SW,236,1.0,5.0,23,0.00,,,0.00,,2013-06-07 02:02:00,
2013-06-06 20:11:00,69.0,30.0,29.49,SW,236,1.0,5.0,23,0.00,,,0.00,,2013-06-07 02:11:00,
2013-06-06 20:22:00,68.0,31.0,29.44,WSW,239,0.0,2.0,25,0.00,,,0.00,,2013-06-07 02:22:00,
2013-06-06 20:32:00,66.0,32.0,29.45,WSW,244,0.0,3.0,28,0.00,,,0.00,,2013-06-07 02:32:00,
2013-06-06 20:42:00,66.0,32.0,29.45,WSW,244,0.0,3.0,28,0.00,,,0.00,,2013-06-07 02:42:00,
2013-06-06 20:52:00,64.0,36.0,29.46,WSW,247,0.0,3.0,35,0.00,,,0.00,,2013-06-07 02:52:00,
2013-06-06 21:01:00,63.0,37.0,29.47,WSW,247,0.0,0.0,38,0.00,,,0.00,,2013-06-07 03:01:00,
2013-06-06 21:11:00,63.0,37.0,29.47,WSW,247,0.0,0.0,38,0.00,,,0.00,,2013-06-07 03:11:00,
2013-06-06 21:22:00,61.0,36.0,29.43,WSW,247,0.0,2.0,39,0.00,,,0.00,,2013-06-07 03:22:00,
2013-06-06 21:32:00,59.0,36.0,29.44,WSW,247,1.0,2.0,42,0.00,,,0.00,,2013-06-07 03:32:00,
2013-06-06 21:43:00,59.0,36.0,29.44,WSW,247,1.0,2.0,42,0.00,,,0.00,,2013-06-07 03:43:00,
2013-06-06 21:53:00,57.0,34.0,29.44,WSW,247,0.0,3.0,42,0.00,,,0.00,,2013-06-07 03:53:00,
2013-06-06 22:02:00,56.0,34.0,29.46,WSW,247,0.0,2.0,44,0.00,,,0.00,,2013-06-07 04:02:00,
2013-06-06 22:12:00,56.0,34.0,29.46,WSW,247,0.0,2.0,44,0.00,,,0.00,,2013-06-07 04:12:00,
2013-06-06 22:22:00,55.0,35.0,29.44,WSW,247,0.0,0.0,46,0.00,,,0.00,,2013-06-07 04:22:00,
2013-06-06 22:33:00,54.0,35.0,29.45,WSW,247,0.0,0.0,49,0.00,,,0.00,,2013-06-07 04:33:00,
2013-06-06 22:42:00,54.0,35.0,29.45,WSW,247,0.0,0.0,49,0.00,,,0.00,,2013-06-07 04:42:00,
2013-06-06 22:53:00,53.0,35.0,29.46,WSW,247,0.0,0.0,51,0.00,,,0.00,,2013-06-07 04:53:00,
2013-06-06 23:02:00,51.0,35.0,29.47,WSW,247,0.0,0.0,54,0.00,,,0.00,,2013-06-07 05:02:00,
2013-06-06 23:22:00,51.0,35.0,29.48,WSW,247,0.0,0.0,55,0.00,,,0.00,,2013-06-07 05:22:00,
2013-06-06 23:31:00,50.0,34.0,29.47,WSW,247,0.0,0.0,55,0.00,,,0.00,,2013-06-07 05:31:00,
2013-06-06 23:42:00,50.0,34.0,29.47,WSW,247,0.0,0.0,55,0.00,,,0.00,,2013-06-07 05:42:00,
2013-06-06 23:52:00,50.0,36.0,29.47,WSW,247,0.0,0.0,59,0.00,,,0.00,,2013-06-07 05:52:00,